Orbital elements of NORBI
| Launched | 27 September 2020 |
| Flight ended | – |
| Launch site | Plesetsk Missile and Space Complex, Russia |
| Owner | Commonwealth of Independent States (former USSR) |
| NORAD ID | 46494 |
| Date fetched |
Epoch osculation |
Inc. [°] |
Ecc. | RA asc node [hr] |
Arg Peri. [°] |
Mean anom [°] |
Mean motion [rev/day] |
Abs. mag |
| Date fetched |
Epoch osculation |
Inc. [°] |
Ecc. | RA asc node [hr] |
Arg Peri. [°] |
Mean anom [°] |
Mean motion [rev/day] |
Abs. mag |
| 2026 May 05 17:57 | 2026 May 05 11:31:24 | 97.8656 | 0.00083 | 9.1828 | 64.7216 | 295.4892 | 15.46676 | – |
| 2026 May 04 17:57 | 2026 May 04 12:13:56 | 97.8653 | 0.00084 | 9.1126 | 67.4385 | 295.4892 | 15.46676 | – |
| 2026 May 03 17:57 | 2026 May 03 11:23:14 | 97.8651 | 0.00085 | 9.0377 | 70.3479 | 295.4892 | 15.46676 | – |
| 2026 May 02 17:57 | 2026 May 02 12:05:41 | 97.8651 | 0.00086 | 8.9674 | 73.0347 | 295.4892 | 15.46676 | – |
| 2026 May 01 17:56 | 2026 May 01 12:48:04 | 97.8652 | 0.00087 | 8.8972 | 75.8394 | 295.4892 | 15.46676 | – |
| 2026 Apr 30 17:56 | 2026 Apr 30 07:17:42 | 97.8653 | 0.00088 | 8.8083 | 79.1745 | 295.4892 | 15.46676 | – |
| 2026 Apr 29 17:57 | 2026 Apr 29 12:39:32 | 97.8654 | 0.00089 | 8.7521 | 81.5093 | 295.4892 | 15.46676 | – |
| 2026 Apr 28 17:56 | 2026 Apr 28 11:48:36 | 97.8658 | 0.00090 | 8.6772 | 84.2678 | 295.4892 | 15.46676 | – |
| 2026 Apr 27 17:58 | 2026 Apr 27 12:30:49 | 97.8661 | 0.00090 | 8.6070 | 86.9160 | 295.4892 | 15.46676 | – |
| 2026 Apr 26 17:58 | 2026 Apr 26 13:12:59 | 97.8666 | 0.00090 | 8.5368 | 89.5542 | 295.4892 | 15.46676 | – |
| 2026 Apr 25 17:58 | 2026 Apr 25 12:21:56 | 97.8670 | 0.00091 | 8.4619 | 92.1605 | 295.4892 | 15.46676 | – |
| 2026 Apr 24 17:59 | 2026 Apr 24 11:30:49 | 97.8673 | 0.00091 | 8.3870 | 94.4625 | 295.4892 | 15.46676 | – |
| 2026 Apr 23 17:57 | 2026 Apr 23 06:00:04 | 97.8674 | 0.00091 | 8.2981 | 97.6842 | 295.4892 | 15.46676 | – |
| 2026 Apr 22 17:57 | 2026 Apr 22 06:42:04 | 97.8672 | 0.00091 | 8.2279 | 100.3929 | 295.4892 | 15.46676 | – |
| 2026 Apr 21 17:57 | 2026 Apr 21 12:03:39 | 97.8670 | 0.00092 | 8.1717 | 102.4990 | 295.4892 | 15.46676 | – |
| 2026 Apr 20 17:57 | 2026 Apr 20 11:12:23 | 97.8667 | 0.00092 | 8.0968 | 105.2476 | 295.4892 | 15.46676 | – |
| 2026 Apr 19 17:58 | 2026 Apr 19 11:54:18 | 97.8666 | 0.00092 | 8.0266 | 108.3710 | 295.4892 | 15.46676 | – |
| 2026 Apr 18 17:56 | 2026 Apr 18 06:23:20 | 97.8664 | 0.00092 | 7.9377 | 111.4858 | 295.4892 | 15.46676 | – |
| 2026 Apr 16 17:57 | 2026 Apr 16 06:13:46 | 97.8668 | 0.00091 | 7.7926 | 117.0787 | 295.4892 | 15.46676 | – |
| 2026 Apr 14 17:57 | 2026 Apr 14 12:16:58 | 97.8674 | 0.00090 | 7.6663 | 121.9761 | 295.4892 | 15.46676 | – |
| 2026 Apr 13 17:57 | 2026 Apr 13 06:45:51 | 97.8676 | 0.00089 | 7.5774 | 125.4231 | 295.4892 | 15.46676 | – |
| 2026 Apr 12 17:57 | 2026 Apr 12 12:07:14 | 97.8680 | 0.00089 | 7.5212 | 127.5826 | 295.4892 | 15.46676 | – |
| 2026 Apr 11 17:57 | 2026 Apr 11 11:15:42 | 97.8682 | 0.00088 | 7.4464 | 130.4502 | 295.4892 | 15.46676 | – |
| 2026 Apr 10 17:58 | 2026 Apr 10 07:17:42 | 97.8684 | 0.00087 | 7.3622 | 134.0359 | 295.4892 | 15.46676 | – |
| 2026 Apr 09 18:01 | 2026 Apr 09 06:26:06 | 97.8685 | 0.00087 | 7.2873 | 136.7998 | 295.4892 | 15.46676 | – |
| 2026 Apr 08 17:57 | 2026 Apr 08 07:07:41 | 97.8685 | 0.00086 | 7.2171 | 139.5798 | 295.4892 | 15.46676 | – |